AYPY

Port Moresby Jacksons International Airport

Port Moresby, Papua New Guinea
METAR AYPY 191600Z 33004KT 9999 FEW004 BKN072 OVC170 25/24 Q1007
Observed Flight Rules
Jan-19 @ 16:00 UTC (36 minutes ago) Visual Flight Rules
Wind Visibility Clouds
330° at 4 knots 10,000+ meters
  • Few at 400' AGL
  • Broken at 7,200' AGL
  • Overcast at 17,000' AGL
Temperatures Readings
Current 25°C / 77°F
Dewpoint 24°C / 75°F
Humidity 94%
Altimeter 29.73" Hg
Pressure 1006.92 hPa
Elevation 47
METAR AYPY 191600Z 33004KT 9999 FEW004 BKN072 OVC170 25/24 Q1007
Observed Flight Rules
Jan-19 @ 16:00 UTC
(36 minutes ago)
VFR
Wind Visibility
330° at 4 knots 10,000+ meters
Clouds
  • Few at 400' AGL
  • Broken at 7,200' AGL
  • Overcast at 17,000' AGL
Temperature Dewpoint
25°C / 77°F 24°C / 75°F
Humidity Altimeter Pressure
94% 29.73" Hg 1006.92 hPa